METAR Data
IDs: Format: Raw Decoded Include TAF

Data at: 2057 UTC 18 Sep 2018

KATL 182052Z 33008KT 250V360 10SM FEW055 FEW200 33/19 A2993 RMK AO2 SLP123 CB DSNT N-NE T03330189 56016
KATL 181952Z 29007KT 10SM FEW055 FEW150 33/18 A2994 RMK AO2 SLP126 T03280183
KATL 181852Z 29006G15KT 10SM FEW060 FEW150 33/18 A2996 RMK AO2 SLP133 T03280183
KATL 181752Z 32009KT 10SM FEW055 FEW150 32/18 A2998 RMK AO2 SLP140 T03220183 10328 20222 58013
KATL 181652Z 32010KT 10SM FEW050 FEW150 31/19 A3000 RMK AO2 SLP148 T03110189
KATL 181552Z 32008KT 10SM FEW045 FEW065 30/19 A3001 RMK AO2 SLP150 T03000194
KATL 181452Z COR 32006KT 10SM FEW065 28/20 A3002 RMK AO2 SLP154 T02830200 53004
KATL 181352Z 29004KT 10SM FEW065 FEW250 26/21 A3002 RMK AO2 SLP154 T02610206
KATL 181252Z 32008KT 10SM FEW060 24/20 A3001 RMK AO2 SLP151 T02390200
KATL 181152Z 31005KT 10SM FEW060 22/19 A3001 RMK AO2 SLP150 T02220194 10239 20217 51006
KATL 181052Z 30005KT 10SM FEW060 22/19 A3000 RMK AO2 SLP149 T02220194
KATL 180952Z 31006KT 10SM CLR 22/19 A3000 RMK AO2 SLP146 T02220194
KATL 180852Z 31006KT 10SM FEW070 23/20 A2999 RMK AO2 SLP143 T02280200 50000
KATL 180752Z 31004KT 10SM FEW070 23/20 A2999 RMK AO2 SLP142 T02330200
KATL 180652Z 30004KT 10SM FEW070 23/20 A2999 RMK AO2 SLP144 T02330200
KATL 180552Z 30003KT 10SM FEW070 24/20 A2999 RMK AO2 SLP143 T02390200 10294 20239 50002
KATL 180452Z 35003KT 10SM CLR 26/19 A2999 RMK AO2 SLP143 T02560194 403330206
KATL 180352Z 36007KT 10SM CLR 26/19 A2999 RMK AO2 SLP142 T02610194
KATL 180252Z 01008KT 10SM CLR 27/20 A2998 RMK AO2 SLP141 T02720200 51015
KATL 180152Z 01009KT 10SM CLR 28/21 A2998 RMK AO2 SLP140 T02780206
KATL 180052Z 32005KT 10SM CLR 28/20 A2995 RMK AO2 SLP130 T02830200
KATL 172352Z 32006KT 10SM FEW050 29/19 A2994 RMK AO2 SLP127 T02940194 10333 20294 53002
KATL 172252Z 32006KT 10SM FEW050 31/19 A2993 RMK AO2 SLP125 T03110194
KATL 172152Z 29008KT 10SM FEW050 32/19 A2993 RMK AO2 SLP125 MDT CU W & NW-N-NE T03170194
KATL 172052Z 29007KT 10SM SCT050 33/19 A2993 RMK AO2 SLP124 MDT CU N-NE-E S NW T03280194 57012
KATL 171952Z 30008KT 10SM SCT045 32/20 A2995 RMK AO2 SLP130 MDT CU NE SW-NW T03170200
KATL 171852Z VRB05KT 10SM SCT043 33/21 A2995 RMK AO2 SLP132 T03280211
KATL 171752Z 32006KT 10SM SCT038 31/21 A2997 RMK AO2 SLP137 T03110206 10317 20211 58006
KATL 171652Z 25008KT 10SM FEW035 31/21 A2998 RMK AO2 SLP141 T03060206
KATL 171552Z 26011G16KT 10SM SCT030 29/20 A2999 RMK AO2 SLP143 T02940200
KATL 171452Z 24009KT 10SM FEW030 FEW060 29/21 A2999 RMK AO2 SLP144 T02890211 51012
KATL 171352Z 22005KT 10SM FEW020 FEW060 26/21 A2998 RMK AO2 SLP142 T02610206
KATL 171252Z 22005KT 10SM FEW120 23/20 A2997 RMK AO2 SLP140 T02330200
KATL 171152Z 20003KT 10SM FEW120 21/19 A2995 RMK AO2 SLP133 T02110194 10222 20206 51015
KATL 171052Z 00000KT 10SM CLR 21/19 A2994 RMK AO2 SLP130 T02060189
KATL 170952Z 22003KT 10SM CLR 21/19 A2992 RMK AO2 SLP122 T02110189